createdAt,value
2023-03-11T00:00:24.368Z,97552.03
2023-03-11T00:02:53.349Z,97566.47
2023-03-11T00:05:24.405Z,97569.00
2023-03-11T00:07:51.781Z,97553.72
2023-03-11T00:10:30.296Z,97554.47
2023-03-11T00:12:58.768Z,97548.59
2023-03-11T00:15:26.971Z,97561.28
2023-03-11T00:17:54.066Z,97555.28
2023-03-11T00:20:27.320Z,97556.13
2023-03-11T00:22:55.143Z,97552.66
2023-03-11T00:25:24.531Z,97547.63
2023-03-11T00:27:52.099Z,97529.84
2023-03-11T00:30:20.900Z,97534.03
2023-03-11T00:32:49.447Z,97528.22
2023-03-11T00:35:19.836Z,97533.31
2023-03-11T00:37:48.323Z,97524.88
2023-03-11T00:40:18.583Z,97526.69
2023-03-11T00:42:46.031Z,97528.50
2023-03-11T00:45:14.124Z,97525.13
2023-03-11T00:47:41.391Z,97530.22
2023-03-11T00:50:14.139Z,97518.34
2023-03-11T00:52:41.218Z,97516.66
2023-03-11T00:55:08.738Z,97515.00
2023-03-11T00:57:35.865Z,97505.75
2023-03-11T01:00:04.282Z,97511.69
2023-03-11T01:02:31.335Z,97511.75
2023-03-11T01:04:58.334Z,97509.28
2023-03-11T01:07:25.390Z,97515.31
2023-03-11T01:09:52.470Z,97513.56
2023-03-11T01:12:19.420Z,97500.94
2023-03-11T01:14:46.463Z,97513.50
2023-03-11T01:17:13.541Z,97506.88
2023-03-11T01:19:41.780Z,97513.63
2023-03-11T01:22:10.307Z,97516.22
2023-03-11T01:24:37.330Z,97523.84
2023-03-11T01:27:04.867Z,97527.34
2023-03-11T01:29:31.962Z,97517.13
2023-03-11T01:31:59.558Z,97517.13
2023-03-11T01:34:27.180Z,97520.47
2023-03-11T01:36:54.257Z,97514.47
2023-03-11T01:39:21.383Z,97508.53
2023-03-11T01:41:48.525Z,97503.50
2023-03-11T01:44:15.627Z,97503.50
2023-03-11T01:46:52.141Z,97504.41
2023-03-11T01:49:22.772Z,97506.19
2023-03-11T01:51:57.705Z,97498.56
2023-03-11T01:54:28.947Z,97503.81
2023-03-11T01:56:57.078Z,97517.38
2023-03-11T01:59:28.881Z,97509.66
2023-03-11T02:02:06.901Z,97502.97
2023-03-11T02:04:35.019Z,97508.78
2023-03-11T02:07:03.743Z,97507.94
2023-03-11T02:09:30.970Z,97515.63
2023-03-11T02:11:58.717Z,97508.00
2023-03-11T02:14:27.912Z,97507.16
2023-03-11T02:16:57.343Z,97506.34
2023-03-11T02:19:53.025Z,97505.50
2023-03-11T02:22:21.171Z,97507.25
2023-03-11T02:25:09.591Z,97514.91
2023-03-11T02:27:41.564Z,97509.03
2023-03-11T02:30:12.305Z,97498.91
2023-03-11T02:32:41.288Z,97520.91
2023-03-11T02:35:08.500Z,97504.91
2023-03-11T02:37:35.775Z,97519.31
2023-03-11T02:40:49.028Z,97514.19
2023-03-11T02:43:22.954Z,97514.34
2023-03-11T02:45:50.907Z,97525.31
2023-03-11T02:48:19.073Z,97535.44
2023-03-11T02:50:47.326Z,97529.50
2023-03-11T02:53:15.919Z,97532.00
2023-03-11T02:55:42.942Z,97536.28
2023-03-11T02:58:10.018Z,97540.53
2023-03-11T03:00:37.213Z,97542.19
2023-03-11T03:03:06.932Z,97549.00
2023-03-11T03:05:34.008Z,97548.19
2023-03-11T03:08:03.165Z,97553.34
2023-03-11T03:10:30.256Z,97555.97
2023-03-11T03:12:57.857Z,97557.75
2023-03-11T03:15:25.667Z,97556.03
2023-03-11T03:17:52.849Z,97551.94
2023-03-11T03:20:22.851Z,97550.31
2023-03-11T03:22:54.696Z,97557.19
2023-03-11T03:25:26.301Z,97566.47
2023-03-11T03:27:54.899Z,97567.31
2023-03-11T03:30:22.792Z,97567.31
2023-03-11T03:32:50.635Z,97572.47
2023-03-11T03:35:18.679Z,97573.44
2023-03-11T03:38:09.082Z,97584.47
2023-03-11T03:40:37.798Z,97581.94
2023-03-11T03:43:06.506Z,97568.53
2023-03-11T03:45:35.649Z,97592.16
2023-03-11T03:48:02.767Z,97593.09
2023-03-11T03:50:33.470Z,97588.03
2023-03-11T03:53:00.709Z,97597.38
2023-03-11T03:55:28.103Z,97592.31
2023-03-11T03:57:56.321Z,97588.97
2023-03-11T04:00:26.266Z,97598.28
2023-03-11T04:02:58.991Z,97589.81
2023-03-11T04:05:34.497Z,97585.63
2023-03-11T04:08:01.904Z,97594.91
2023-03-11T04:10:29.066Z,97605.09
2023-03-11T04:12:56.290Z,97605.19
2023-03-11T04:15:23.547Z,97606.03
2023-03-11T04:17:50.771Z,97613.72
2023-03-11T04:20:18.406Z,97612.94
2023-03-11T04:22:48.862Z,97618.00
2023-03-11T04:25:17.608Z,97620.53
2023-03-11T04:27:46.298Z,97620.63
2023-03-11T04:30:14.607Z,97623.97
2023-03-11T04:32:43.779Z,97622.25
2023-03-11T04:35:11.738Z,97629.91
2023-03-11T04:37:39.521Z,97638.38
2023-03-11T04:40:07.456Z,97625.69
2023-03-11T04:42:34.918Z,97640.06
2023-03-11T04:45:02.313Z,97637.53
2023-03-11T04:47:31.227Z,97647.72
2023-03-11T04:49:58.749Z,97651.16
2023-03-11T04:52:25.895Z,97652.88
2023-03-11T04:54:53.588Z,97649.50
2023-03-11T04:57:20.746Z,97649.47
2023-03-11T04:59:48.537Z,97657.09
2023-03-11T05:02:16.169Z,97667.31
2023-03-11T05:04:51.335Z,97646.28
2023-03-11T05:07:18.502Z,97672.44
2023-03-11T05:09:46.508Z,97673.31
2023-03-11T05:12:13.810Z,97673.31
2023-03-11T05:14:43.427Z,97685.22
2023-03-11T05:17:12.386Z,97686.91
2023-03-11T05:19:39.699Z,97697.16
2023-03-11T05:22:13.222Z,97700.53
2023-03-11T05:24:40.539Z,97707.34
2023-03-11T05:27:07.727Z,97717.53
2023-03-11T05:29:36.301Z,97710.81
2023-03-11T05:32:05.678Z,97717.59
2023-03-11T05:34:32.820Z,97730.38
2023-03-11T05:37:03.174Z,97725.38
2023-03-11T05:39:31.290Z,97735.50
2023-03-11T05:41:58.374Z,97744.03
2023-03-11T05:44:26.720Z,97759.34
2023-03-11T05:46:55.982Z,97761.06
2023-03-11T05:49:23.451Z,97778.84
2023-03-11T05:51:53.620Z,97783.97
2023-03-11T05:54:21.343Z,97795.94
2023-03-11T05:56:51.374Z,97802.72
2023-03-11T05:59:19.746Z,97806.16
2023-03-11T06:01:53.555Z,97818.06
2023-03-11T06:04:22.083Z,97826.56
2023-03-11T06:06:49.782Z,97826.63
2023-03-11T06:09:19.492Z,97842.78
2023-03-11T06:11:46.754Z,97845.34
2023-03-11T06:14:15.983Z,97858.88
2023-03-11T06:16:45.061Z,97865.66
2023-03-11T06:19:12.863Z,97870.78
2023-03-11T06:21:44.032Z,97877.53
2023-03-11T06:24:11.249Z,97886.03
2023-03-11T06:26:38.778Z,97892.84
2023-03-11T06:29:12.817Z,97904.72
2023-03-11T06:31:40.724Z,97909.84
2023-03-11T06:34:12.032Z,97926.81
2023-03-11T06:36:39.466Z,97931.91
2023-03-11T06:39:07.097Z,97942.09
2023-03-11T06:41:36.373Z,97944.69
2023-03-11T06:44:05.455Z,97958.25
2023-03-11T06:46:33.936Z,97958.28
2023-03-11T06:49:01.113Z,97971.03
2023-03-11T06:51:29.990Z,97981.22
2023-03-11T06:53:57.201Z,97978.69
2023-03-11T06:56:26.100Z,98003.28
2023-03-11T06:59:00.988Z,98008.38
2023-03-11T07:01:31.850Z,98015.19
2023-03-11T07:04:01.422Z,98028.72
2023-03-11T07:06:29.411Z,98021.97
2023-03-11T07:09:07.886Z,98033.84
2023-03-11T07:11:38.906Z,98020.25
2023-03-11T07:14:11.141Z,98049.06
2023-03-11T07:16:42.277Z,98052.50
2023-03-11T07:19:17.761Z,98064.38
2023-03-11T07:21:45.104Z,98067.75
2023-03-11T07:24:14.378Z,98075.38
2023-03-11T07:26:44.372Z,98077.06
2023-03-11T07:29:11.833Z,98089.81
2023-03-11T07:31:39.189Z,98094.03
2023-03-11T07:34:11.622Z,98105.06
2023-03-11T07:36:43.075Z,98103.38
2023-03-11T07:39:16.081Z,98118.63
2023-03-11T07:41:44.314Z,98124.56
2023-03-11T07:44:14.191Z,98120.31
2023-03-11T07:46:42.024Z,98130.50
2023-03-11T07:49:09.223Z,98133.91
2023-03-11T07:51:38.047Z,98149.13
2023-03-11T07:54:05.884Z,98159.28
2023-03-11T07:56:35.639Z,98169.47
2023-03-11T07:59:04.710Z,98171.16
2023-03-11T08:01:41.550Z,98180.50
2023-03-11T08:04:14.461Z,98184.75
2023-03-11T08:06:43.199Z,98194.97
2023-03-11T08:09:11.462Z,98192.38
2023-03-11T08:11:38.921Z,98205.09
2023-03-11T08:14:06.623Z,98213.59
2023-03-11T08:16:34.325Z,98215.28
2023-03-11T08:19:01.500Z,98224.63
2023-03-11T08:21:32.518Z,98224.63
2023-03-11T08:24:01.555Z,98239.88
2023-03-11T08:26:29.095Z,98230.63
2023-03-11T08:28:57.255Z,98253.47
2023-03-11T08:31:27.566Z,98240.78
2023-03-11T08:34:05.556Z,98256.06
2023-03-11T08:36:33.549Z,98265.38
2023-03-11T08:39:01.237Z,98274.72
2023-03-11T08:41:28.913Z,98279.78
2023-03-11T08:43:56.485Z,98280.66
2023-03-11T08:46:33.142Z,98306.97
2023-03-11T08:49:01.721Z,98309.50
2023-03-11T08:51:30.303Z,98313.75
2023-03-11T08:53:58.115Z,98322.22
2023-03-11T08:56:26.000Z,98333.25
2023-03-11T08:58:53.416Z,98345.97
2023-03-11T09:01:20.705Z,98339.19
2023-03-11T09:03:47.938Z,98352.75
2023-03-11T09:06:16.628Z,98371.44
2023-03-11T09:08:44.802Z,98373.13
2023-03-11T09:11:13.786Z,98376.50
2023-03-11T09:13:42.083Z,98385.81
2023-03-11T09:16:21.426Z,98394.31
2023-03-11T09:18:48.873Z,98404.47
2023-03-11T09:21:16.069Z,98416.38
2023-03-11T09:23:44.475Z,98413.81
2023-03-11T09:26:12.840Z,98422.31
2023-03-11T09:28:41.555Z,98425.69
2023-03-11T09:31:09.003Z,98433.34
2023-03-11T09:33:41.499Z,98439.25
2023-03-11T09:36:14.545Z,98447.72
2023-03-11T09:38:42.972Z,98456.22
2023-03-11T09:41:18.998Z,98471.47
2023-03-11T09:44:11.418Z,98476.56
2023-03-11T09:46:56.226Z,98478.25
2023-03-11T09:49:38.852Z,98484.19
2023-03-11T09:52:19.523Z,98486.72
2023-03-11T09:54:53.585Z,98507.09
2023-03-11T09:57:25.855Z,98506.22
2023-03-11T09:59:53.628Z,98507.09
2023-03-11T10:02:27.039Z,98510.50
2023-03-11T10:05:15.979Z,98516.44
2023-03-11T10:07:52.345Z,98524.94
2023-03-11T10:10:19.617Z,98538.53
2023-03-11T10:13:01.695Z,98533.44
2023-03-11T10:15:48.614Z,98537.69
2023-03-11T10:18:50.984Z,98553.81
2023-03-11T10:21:27.105Z,98561.44
2023-03-11T10:23:54.228Z,98556.34
2023-03-11T10:26:51.547Z,98568.22
2023-03-11T10:29:30.236Z,98563.16
2023-03-11T10:32:32.546Z,98571.66
2023-03-11T10:35:05.435Z,98576.75
2023-03-11T10:37:59.618Z,98580.16
2023-03-11T10:40:31.898Z,98584.44
2023-03-11T10:43:04.755Z,98588.66
2023-03-11T10:45:38.851Z,98591.22
2023-03-11T10:48:10.660Z,98599.69
2023-03-11T10:50:42.618Z,98608.19
2023-03-11T10:53:15.528Z,98626.88
2023-03-11T10:55:51.873Z,98628.53
2023-03-11T10:58:24.820Z,98635.31
2023-03-11T11:01:16.173Z,98640.41
2023-03-11T11:03:45.976Z,98644.66
2023-03-11T11:06:34.785Z,98640.38
2023-03-11T11:09:31.419Z,98648.03
2023-03-11T11:12:14.988Z,98657.38
2023-03-11T11:14:44.290Z,98655.66
2023-03-11T11:17:19.632Z,98659.06
2023-03-11T11:19:49.253Z,98661.59
2023-03-11T11:22:19.638Z,98671.00
2023-03-11T11:24:48.938Z,98665.06
2023-03-11T11:27:18.538Z,98672.72
2023-03-11T11:29:47.159Z,98680.38
2023-03-11T11:32:24.496Z,98680.41
2023-03-11T11:34:55.432Z,98681.22
2023-03-11T11:37:23.669Z,98683.75
2023-03-11T11:39:56.562Z,98690.53
2023-03-11T11:42:27.101Z,98693.94
2023-03-11T11:45:03.916Z,98705.81
2023-03-11T11:47:35.629Z,98701.56
2023-03-11T11:50:07.540Z,98699.88
2023-03-11T11:52:45.118Z,98719.44
2023-03-11T11:55:24.986Z,98716.03
2023-03-11T11:57:53.095Z,98726.22
2023-03-11T12:00:25.665Z,98730.47
2023-03-11T12:02:55.693Z,98741.50
2023-03-11T12:06:03.614Z,98749.97
2023-03-11T12:08:40.308Z,98751.69
2023-03-11T12:11:15.550Z,98750.84
2023-03-11T12:14:02.379Z,98748.31
2023-03-11T12:16:35.021Z,98760.19
2023-03-11T12:19:31.025Z,98763.59
2023-03-11T12:22:13.015Z,98761.88
2023-03-11T12:25:22.372Z,98761.03
2023-03-11T12:27:52.707Z,98776.28
2023-03-11T12:30:27.487Z,98777.97
2023-03-11T12:33:03.948Z,98787.31
2023-03-11T12:35:34.957Z,98790.72
2023-03-11T12:38:28.227Z,98791.56
2023-03-11T12:41:21.199Z,98797.50
2023-03-11T12:43:48.640Z,98789.00
2023-03-11T12:46:19.893Z,98803.44
2023-03-11T12:49:10.942Z,98814.50
2023-03-11T12:51:39.915Z,98821.31
2023-03-11T12:54:34.249Z,98823.00
2023-03-11T12:57:05.893Z,98834.06
2023-03-11T13:00:12.729Z,98829.00
2023-03-11T13:03:04.648Z,98847.66
2023-03-11T13:05:55.386Z,98847.69
2023-03-11T13:08:27.466Z,98856.19
2023-03-11T13:10:56.579Z,98856.13
2023-03-11T13:13:42.833Z,98870.63
2023-03-11T13:16:13.240Z,98868.94
2023-03-11T13:18:41.849Z,98880.81
2023-03-11T13:21:27.802Z,98884.25
2023-03-11T13:24:19.945Z,98887.69
2023-03-11T13:26:59.200Z,98899.66
2023-03-11T13:30:03.387Z,98896.25
2023-03-11T13:32:54.805Z,98891.16
2023-03-11T13:35:46.859Z,98901.34
2023-03-11T13:38:53.881Z,98914.13
2023-03-11T13:41:30.756Z,98913.22
2023-03-11T13:44:10.025Z,98918.28
2023-03-11T13:46:40.904Z,98930.16
2023-03-11T13:49:31.092Z,98936.94
2023-03-11T13:51:59.619Z,98942.00
2023-03-11T13:54:49.112Z,98945.41
2023-03-11T13:57:28.312Z,98964.91
2023-03-11T13:59:57.523Z,98960.69
2023-03-11T14:02:27.566Z,98967.44
2023-03-11T14:04:57.390Z,98975.94
2023-03-11T14:07:26.851Z,98974.22
2023-03-11T14:10:26.721Z,98986.13
2023-03-11T14:13:18.629Z,98993.75
2023-03-11T14:15:53.003Z,98991.22
2023-03-11T14:18:32.880Z,99004.78
2023-03-11T14:21:01.354Z,99006.50
2023-03-11T14:23:36.563Z,99009.03
2023-03-11T14:26:35.374Z,99014.97
2023-03-11T14:29:09.272Z,99018.38
2023-03-11T14:31:41.746Z,99030.25
2023-03-11T14:34:11.768Z,99023.47
2023-03-11T14:36:51.223Z,99033.69
2023-03-11T14:39:26.405Z,99040.47
2023-03-11T14:42:08.148Z,99041.38
2023-03-11T14:44:40.892Z,99047.31
2023-03-11T14:47:42.021Z,99047.28
2023-03-11T14:50:18.024Z,99050.72
2023-03-11T14:53:29.280Z,99057.47
2023-03-11T14:56:09.160Z,99062.53
2023-03-11T14:58:53.209Z,99064.22
2023-03-11T15:01:31.605Z,99067.59
2023-03-11T15:04:09.254Z,99072.75
2023-03-11T15:06:40.306Z,99076.97
2023-03-11T15:09:16.857Z,99086.31
2023-03-11T15:11:49.752Z,99094.81
2023-03-11T15:14:25.461Z,99093.97
2023-03-11T15:16:54.254Z,99104.16
2023-03-11T15:19:34.801Z,99104.97
2023-03-11T15:22:29.825Z,99104.97
2023-03-11T15:24:59.925Z,99111.75
2023-03-11T15:27:38.918Z,99110.06
2023-03-11T15:30:18.673Z,99110.06
2023-03-11T15:32:46.385Z,99107.53
2023-03-11T15:35:16.663Z,99125.41
2023-03-11T15:37:45.347Z,99118.63
2023-03-11T15:40:13.040Z,99130.53
2023-03-11T15:42:40.350Z,99128.00
2023-03-11T15:45:20.548Z,99139.06
2023-03-11T15:47:48.495Z,99137.41
2023-03-11T15:50:24.192Z,99145.94
2023-03-11T15:52:57.213Z,99140.00
2023-03-11T15:55:26.505Z,99139.06
2023-03-11T15:58:02.496Z,99158.56
2023-03-11T16:00:29.877Z,99155.16
2023-03-11T16:02:57.016Z,99155.09
2023-03-11T16:05:25.190Z,99148.25
2023-03-11T16:07:52.288Z,99167.81
2023-03-11T16:10:22.375Z,99168.63
2023-03-11T16:12:49.425Z,99167.72
2023-03-11T16:15:28.575Z,99178.75
2023-03-11T16:18:00.561Z,99176.97
2023-03-11T16:20:34.017Z,99174.41
2023-03-11T16:23:02.578Z,99186.28
2023-03-11T16:25:39.951Z,99182.81
2023-03-11T16:28:07.579Z,99191.34
2023-03-11T16:30:35.346Z,99201.53
2023-03-11T16:33:04.744Z,99203.22
2023-03-11T16:35:32.904Z,99214.28
2023-03-11T16:38:00.180Z,99206.63
2023-03-11T16:40:29.124Z,99211.72
2023-03-11T16:43:01.018Z,99191.19
2023-03-11T16:45:28.343Z,99201.47
2023-03-11T16:47:55.676Z,99206.50
2023-03-11T16:50:26.965Z,99215.91
2023-03-11T16:52:56.212Z,99221.84
2023-03-11T16:55:25.520Z,99228.56
2023-03-11T16:57:54.818Z,99226.81
2023-03-11T17:00:22.504Z,99232.69
2023-03-11T17:02:49.500Z,99247.84
2023-03-11T17:05:16.955Z,99243.53
2023-03-11T17:07:43.985Z,99255.44
2023-03-11T17:10:12.235Z,99248.56
2023-03-11T17:12:39.340Z,99248.47
2023-03-11T17:15:07.031Z,99266.41
2023-03-11T17:17:34.272Z,99277.44
2023-03-11T17:20:01.327Z,99270.63
2023-03-11T17:22:28.524Z,99273.97
2023-03-11T17:24:55.654Z,99269.69
2023-03-11T17:27:22.679Z,99273.91
2023-03-11T17:29:49.816Z,99273.84
2023-03-11T17:32:17.752Z,99280.59
2023-03-11T17:34:44.945Z,99284.03
2023-03-11T17:37:12.291Z,99281.38
2023-03-11T17:39:39.461Z,99286.53
2023-03-11T17:42:06.570Z,99293.25
2023-03-11T17:44:50.243Z,99290.69
2023-03-11T17:47:20.188Z,99300.06
2023-03-11T17:49:48.735Z,99289.00
2023-03-11T17:52:16.049Z,99299.97
2023-03-11T17:54:43.451Z,99301.66
2023-03-11T17:57:10.685Z,99314.31
2023-03-11T17:59:37.737Z,99310.00
2023-03-11T18:02:04.953Z,99322.72
2023-03-11T18:04:32.093Z,99329.50
2023-03-11T18:06:59.288Z,99321.78
2023-03-11T18:09:26.635Z,99335.47
2023-03-11T18:11:54.436Z,99344.81
2023-03-11T18:14:21.525Z,99338.88
2023-03-11T18:16:48.611Z,99341.28
2023-03-11T18:19:15.582Z,99348.16
2023-03-11T18:21:42.708Z,99349.84
2023-03-11T18:24:09.707Z,99351.50
2023-03-11T18:26:36.700Z,99345.47
2023-03-11T18:29:04.187Z,99359.88
2023-03-11T18:31:32.342Z,99353.00
2023-03-11T18:34:02.691Z,99367.47
2023-03-11T18:36:35.065Z,99373.41
2023-03-11T18:39:02.810Z,99368.28
2023-03-11T18:41:33.474Z,99371.59
2023-03-11T18:44:01.369Z,99375.84
2023-03-11T18:46:33.521Z,99381.78
2023-03-11T18:49:02.376Z,99380.03
2023-03-11T18:51:31.881Z,99390.22
2023-03-11T18:54:00.145Z,99388.47
2023-03-11T18:56:27.291Z,99397.78
2023-03-11T18:58:56.216Z,99392.69
2023-03-11T19:01:23.500Z,99393.56
2023-03-11T19:03:56.736Z,99391.72
2023-03-11T19:06:25.726Z,99393.41
2023-03-11T19:08:53.439Z,99395.16
2023-03-11T19:11:23.295Z,99401.84
2023-03-11T19:13:50.621Z,99408.72
2023-03-11T19:16:20.764Z,99410.41
2023-03-11T19:18:48.307Z,99414.53
2023-03-11T19:21:16.643Z,99418.75
2023-03-11T19:23:45.037Z,99419.47
2023-03-11T19:26:12.785Z,99425.47
2023-03-11T19:28:40.054Z,99428.84
2023-03-11T19:31:07.308Z,99439.03
2023-03-11T19:33:34.791Z,99439.03
2023-03-11T19:36:04.746Z,99437.31
2023-03-11T19:38:31.943Z,99438.84
2023-03-11T19:41:14.799Z,99445.69
2023-03-11T19:43:42.212Z,99449.13
2023-03-11T19:46:12.771Z,99449.13
2023-03-11T19:48:40.453Z,99450.78
2023-03-11T19:51:07.894Z,99450.72
2023-03-11T19:53:37.109Z,99456.72
2023-03-11T19:56:04.987Z,99454.16
2023-03-11T19:58:32.520Z,99463.47
2023-03-11T20:01:00.111Z,99458.41
2023-03-11T20:03:27.475Z,99461.69
2023-03-11T20:05:58.073Z,99450.66
2023-03-11T20:08:26.640Z,99451.47
2023-03-11T20:10:54.487Z,99458.28
2023-03-11T20:13:23.110Z,99462.53
2023-03-11T20:15:50.512Z,99460.84
2023-03-11T20:18:18.289Z,99459.03
2023-03-11T20:20:46.961Z,99467.50
2023-03-11T20:23:14.525Z,99466.72
2023-03-11T20:25:42.595Z,99467.47
2023-03-11T20:28:10.235Z,99458.13
2023-03-11T20:30:38.623Z,99464.97
2023-03-11T20:33:06.348Z,99468.31
2023-03-11T20:35:34.051Z,99469.09
2023-03-11T20:38:03.193Z,99448.66
2023-03-11T20:40:30.740Z,99470.88
2023-03-11T20:42:57.915Z,99469.16
2023-03-11T20:45:25.109Z,99472.53
2023-03-11T20:47:54.175Z,99472.53
2023-03-11T20:50:22.998Z,99464.06
2023-03-11T20:52:51.253Z,99472.53
2023-03-11T20:55:19.141Z,99467.44
2023-03-11T20:57:46.950Z,99460.66
2023-03-11T21:00:14.845Z,99464.06
2023-03-11T21:02:43.529Z,99462.31
2023-03-11T21:05:11.883Z,99470.72
2023-03-11T21:07:39.700Z,99474.13
2023-03-11T21:10:10.735Z,99470.72
2023-03-11T21:12:38.479Z,99463.03
2023-03-11T21:15:08.071Z,99474.94
2023-03-11T21:17:36.000Z,99479.13
2023-03-11T21:20:07.023Z,99465.41
2023-03-11T21:22:34.531Z,99490.13
2023-03-11T21:25:01.786Z,99477.50
2023-03-11T21:27:29.472Z,99482.56
2023-03-11T21:29:57.255Z,99468.97
2023-03-11T21:32:26.052Z,99474.00
2023-03-11T21:34:59.211Z,99463.78
2023-03-11T21:37:27.507Z,99467.22
2023-03-11T21:39:55.201Z,99469.75
2023-03-11T21:42:22.939Z,99469.81
2023-03-11T21:44:51.796Z,99463.94
2023-03-11T21:47:19.922Z,99451.25
2023-03-11T21:49:47.199Z,99434.28
2023-03-11T21:52:14.503Z,99455.63
2023-03-11T21:54:41.800Z,99456.53
2023-03-11T21:57:09.137Z,99458.28
2023-03-11T21:59:36.259Z,99458.31
2023-03-11T22:02:03.795Z,99454.16
2023-03-11T22:04:32.235Z,99458.44
2023-03-11T22:06:59.730Z,99444.84
2023-03-11T22:09:27.103Z,99448.34
2023-03-11T22:11:56.380Z,99449.19
2023-03-11T22:14:24.255Z,99449.19
2023-03-11T22:16:51.761Z,99457.72
2023-03-11T22:19:19.273Z,99443.28
2023-03-11T22:21:46.537Z,99445.91
2023-03-11T22:24:13.822Z,99442.50
2023-03-11T22:26:41.210Z,99435.72
2023-03-11T22:29:09.085Z,99440.03
2023-03-11T22:31:36.469Z,99440.09
2023-03-11T22:34:03.782Z,99440.97
2023-03-11T22:36:30.988Z,99444.41
2023-03-11T22:38:58.264Z,99434.94
2023-03-11T22:41:25.585Z,99444.41
2023-03-11T22:43:52.765Z,99433.28
2023-03-11T22:46:20.091Z,99443.56
2023-03-11T22:48:47.671Z,99441.13
2023-03-11T22:51:15.285Z,99432.69
2023-03-11T22:53:42.550Z,99437.78
2023-03-11T22:56:12.954Z,99430.16
2023-03-11T22:58:40.346Z,99420.69
2023-03-11T23:01:08.114Z,99432.75
2023-03-11T23:03:36.442Z,99430.25
2023-03-11T23:06:07.420Z,99430.25
2023-03-11T23:08:35.008Z,99409.00
2023-03-11T23:11:09.382Z,99405.53
2023-03-11T23:13:37.713Z,99424.31
2023-03-11T23:16:07.575Z,99420.97
2023-03-11T23:18:35.706Z,99413.31
2023-03-11T23:21:02.891Z,99414.16
2023-03-11T23:23:30.300Z,99418.38
2023-03-11T23:25:57.463Z,99414.09
2023-03-11T23:28:24.800Z,99422.56
2023-03-11T23:30:52.235Z,99408.13
2023-03-11T23:33:19.506Z,99408.91
2023-03-11T23:35:46.827Z,99398.63
2023-03-11T23:38:14.305Z,99405.47
2023-03-11T23:40:41.805Z,99403.72
2023-03-11T23:43:09.073Z,99399.44
2023-03-11T23:45:36.234Z,99403.72
2023-03-11T23:48:03.502Z,99394.38
2023-03-11T23:50:30.813Z,99396.97
2023-03-11T23:52:58.035Z,99402.88
2023-03-11T23:55:25.146Z,99405.38
2023-03-11T23:57:52.311Z,99418.97
